createdAt,value
2018-11-13T00:00:52.486Z,84.00
2018-11-13T00:02:56.376Z,83.70
2018-11-13T00:04:59.936Z,83.80
2018-11-13T00:07:03.557Z,84.30
2018-11-13T00:09:08.210Z,84.50
2018-11-13T00:11:11.771Z,84.70
2018-11-13T00:13:15.535Z,84.80
2018-11-13T00:15:19.249Z,84.80
2018-11-13T00:17:22.771Z,85.00
2018-11-13T00:19:26.317Z,84.50
2018-11-13T00:21:30.089Z,84.40
2018-11-13T00:23:33.633Z,84.40
2018-11-13T00:25:37.169Z,84.00
2018-11-13T00:27:41.568Z,84.60
2018-11-13T00:29:45.008Z,84.40
2018-11-13T00:31:48.563Z,84.90
2018-11-13T00:33:52.100Z,84.90
2018-11-13T00:35:55.680Z,85.00
2018-11-13T00:37:59.166Z,84.60
2018-11-13T00:40:02.805Z,84.30
2018-11-13T00:42:06.567Z,83.80
2018-11-13T00:44:10.728Z,85.00
2018-11-13T00:46:14.277Z,84.50
2018-11-13T00:48:17.991Z,84.70
2018-11-13T00:50:21.809Z,84.00
2018-11-13T00:52:25.311Z,84.30
2018-11-13T00:54:28.826Z,84.00
2018-11-13T00:56:32.464Z,84.10
2018-11-13T00:58:36.057Z,84.00
2018-11-13T01:00:39.854Z,84.70
2018-11-13T01:02:43.611Z,85.20
2018-11-13T01:04:47.151Z,84.80
2018-11-13T01:06:50.750Z,84.20
2018-11-13T01:08:54.366Z,83.90
2018-11-13T01:10:57.973Z,83.50
2018-11-13T01:13:01.505Z,83.30
2018-11-13T01:15:05.351Z,83.30
2018-11-13T01:17:08.905Z,83.20
2018-11-13T01:19:12.472Z,83.40
2018-11-13T01:21:16.254Z,83.80
2018-11-13T01:23:19.838Z,84.00
2018-11-13T01:25:23.371Z,84.20
2018-11-13T01:27:26.924Z,83.90
2018-11-13T01:29:30.513Z,84.10
2018-11-13T01:31:34.065Z,83.90
2018-11-13T01:33:37.736Z,84.20
2018-11-13T01:35:41.309Z,84.40
2018-11-13T01:37:44.990Z,84.50
2018-11-13T01:39:48.748Z,84.40
2018-11-13T01:41:52.372Z,84.20
2018-11-13T01:43:55.939Z,84.30
2018-11-13T01:45:59.441Z,84.10
2018-11-13T01:48:03.042Z,83.80
2018-11-13T01:50:06.871Z,83.90
2018-11-13T01:52:10.449Z,83.80
2018-11-13T01:54:14.047Z,83.60
2018-11-13T01:56:17.596Z,83.90
2018-11-13T01:58:21.199Z,83.00
2018-11-13T02:00:24.996Z,82.60
2018-11-13T02:02:28.568Z,83.30
2018-11-13T02:04:32.609Z,83.90
2018-11-13T02:06:36.325Z,83.40
2018-11-13T02:08:39.909Z,83.70
2018-11-13T02:10:43.748Z,83.70
2018-11-13T02:12:47.887Z,83.60
2018-11-13T02:14:51.417Z,83.20
2018-11-13T02:16:55.045Z,83.30
2018-11-13T02:18:58.650Z,82.90
2018-11-13T02:21:02.365Z,83.10
2018-11-13T02:23:05.886Z,83.20
2018-11-13T02:25:11.658Z,83.60
2018-11-13T02:27:15.292Z,83.70
2018-11-13T02:29:18.860Z,83.90
2018-11-13T02:31:22.474Z,83.60
2018-11-13T02:33:26.115Z,83.20
2018-11-13T02:35:29.785Z,83.30
2018-11-13T02:37:33.231Z,83.60
2018-11-13T02:39:36.730Z,83.60
2018-11-13T02:41:40.646Z,83.10
2018-11-13T02:43:44.331Z,82.70
2018-11-13T02:45:48.361Z,82.30
2018-11-13T02:47:51.903Z,82.50
2018-11-13T02:49:55.687Z,82.40
2018-11-13T02:51:59.484Z,83.00
2018-11-13T02:54:03.075Z,83.60
2018-11-13T02:56:06.995Z,83.00
2018-11-13T02:58:10.717Z,83.10
2018-11-13T03:00:17.469Z,83.70
2018-11-13T03:02:20.992Z,83.70
2018-11-13T03:04:24.639Z,83.50
2018-11-13T03:06:28.231Z,83.30
2018-11-13T03:08:31.976Z,83.50
2018-11-13T03:10:35.578Z,83.00
2018-11-13T03:12:39.174Z,82.80
2018-11-13T03:14:42.684Z,82.80
2018-11-13T03:16:46.293Z,83.70
2018-11-13T03:18:49.945Z,83.00
2018-11-13T03:20:53.517Z,83.50
2018-11-13T03:22:57.049Z,83.50
2018-11-13T03:25:00.620Z,83.50
2018-11-13T03:27:04.288Z,82.70
2018-11-13T03:29:07.974Z,82.50
2018-11-13T03:31:11.686Z,82.90
2018-11-13T03:33:15.277Z,82.90
2018-11-13T03:35:18.909Z,82.80
2018-11-13T03:37:22.635Z,82.60
2018-11-13T03:39:26.205Z,82.40
2018-11-13T03:41:29.823Z,82.50
2018-11-13T03:43:33.364Z,83.00
2018-11-13T03:45:36.887Z,83.80
2018-11-13T03:47:40.567Z,83.00
2018-11-13T03:49:44.154Z,82.90
2018-11-13T03:51:47.683Z,83.20
2018-11-13T03:53:51.208Z,83.20
2018-11-13T03:55:54.749Z,82.90
2018-11-13T03:57:58.444Z,82.50
2018-11-13T04:00:02.152Z,82.30
2018-11-13T04:02:05.844Z,82.40
2018-11-13T04:04:13.332Z,82.20
2018-11-13T04:06:16.865Z,82.10
2018-11-13T04:08:20.364Z,82.10
2018-11-13T04:10:24.564Z,82.30
2018-11-13T04:12:28.084Z,82.10
2018-11-13T04:14:31.638Z,82.10
2018-11-13T04:16:35.564Z,81.80
2018-11-13T04:18:39.091Z,81.80
2018-11-13T04:20:42.664Z,82.10
2018-11-13T04:22:46.502Z,82.00
2018-11-13T04:24:50.103Z,81.70
2018-11-13T04:26:53.636Z,81.60
2018-11-13T04:28:57.462Z,81.90
2018-11-13T04:31:01.149Z,82.30
2018-11-13T04:33:04.829Z,82.20
2018-11-13T04:35:10.271Z,81.80
2018-11-13T04:37:13.951Z,81.90
2018-11-13T04:39:17.863Z,81.60
2018-11-13T04:41:21.390Z,82.00
2018-11-13T04:43:24.941Z,82.30
2018-11-13T04:45:28.601Z,82.40
2018-11-13T04:47:32.335Z,82.20
2018-11-13T04:49:35.912Z,81.80
2018-11-13T04:51:39.935Z,81.50
2018-11-13T04:53:43.461Z,81.50
2018-11-13T04:55:46.942Z,82.00
2018-11-13T04:57:50.801Z,81.00
2018-11-13T04:59:54.563Z,81.30
2018-11-13T05:01:58.108Z,81.60
2018-11-13T05:04:01.730Z,81.70
2018-11-13T05:06:05.703Z,81.60
2018-11-13T05:08:09.417Z,80.90
2018-11-13T05:10:13.439Z,81.00
2018-11-13T05:12:17.046Z,81.10
2018-11-13T05:14:20.670Z,81.40
2018-11-13T05:16:24.192Z,81.60
2018-11-13T05:18:27.800Z,81.40
2018-11-13T05:20:31.481Z,81.20
2018-11-13T05:22:35.044Z,81.20
2018-11-13T05:24:38.600Z,80.90
2018-11-13T05:26:42.459Z,81.00
2018-11-13T05:28:46.250Z,81.10
2018-11-13T05:30:49.972Z,81.10
2018-11-13T05:32:53.578Z,80.60
2018-11-13T05:34:57.122Z,81.00
2018-11-13T05:37:00.742Z,81.20
2018-11-13T05:39:06.180Z,81.50
2018-11-13T05:41:09.720Z,82.20
2018-11-13T05:43:13.228Z,81.70
2018-11-13T05:45:18.156Z,81.40
2018-11-13T05:47:21.804Z,81.10
2018-11-13T05:49:25.444Z,81.10
2018-11-13T05:51:29.120Z,80.90
2018-11-13T05:53:32.648Z,81.00
2018-11-13T05:55:36.320Z,81.20
2018-11-13T05:57:39.978Z,81.30
2018-11-13T05:59:43.619Z,81.30
2018-11-13T06:01:47.230Z,81.10
2018-11-13T06:03:51.011Z,81.80
2018-11-13T06:05:55.137Z,81.50
2018-11-13T06:07:58.814Z,80.90
2018-11-13T06:10:02.601Z,81.10
2018-11-13T06:14:09.617Z,80.70
2018-11-13T06:16:13.360Z,80.30
2018-11-13T06:18:17.061Z,80.50
2018-11-13T06:20:20.644Z,80.40
2018-11-13T06:22:24.226Z,80.70
2018-11-13T06:24:27.941Z,80.80
2018-11-13T06:26:31.524Z,81.80
2018-11-13T06:28:35.148Z,81.10
2018-11-13T06:30:38.719Z,80.70
2018-11-13T06:32:42.276Z,81.10
2018-11-13T06:34:45.811Z,80.60
2018-11-13T06:36:49.460Z,80.70
2018-11-13T06:38:53.186Z,80.70
2018-11-13T06:40:56.579Z,81.00
2018-11-13T06:43:00.186Z,80.80
2018-11-13T06:45:03.859Z,80.70
2018-11-13T06:47:07.634Z,80.50
2018-11-13T06:49:11.585Z,80.70
2018-11-13T06:51:15.080Z,81.00
2018-11-13T06:53:18.564Z,80.70
2018-11-13T06:55:24.696Z,81.10
2018-11-13T06:57:28.431Z,81.00
2018-11-13T06:59:31.919Z,81.40
2018-11-13T07:01:35.568Z,82.30
2018-11-13T07:03:39.156Z,81.10
2018-11-13T07:05:42.882Z,81.10
2018-11-13T07:07:46.937Z,80.80
2018-11-13T07:09:50.472Z,80.70
2018-11-13T07:11:54.027Z,80.70
2018-11-13T07:13:57.596Z,80.70
2018-11-13T07:16:01.174Z,81.30
2018-11-13T07:18:05.262Z,81.50
2018-11-13T07:20:09.149Z,81.70
2018-11-13T07:22:12.735Z,81.90
2018-11-13T07:24:16.272Z,82.20
2018-11-13T07:26:19.839Z,82.10
2018-11-13T07:28:23.534Z,81.80
2018-11-13T07:30:27.952Z,81.70
2018-11-13T07:32:31.555Z,82.00
2018-11-13T07:34:35.161Z,82.10
2018-11-13T07:36:38.949Z,81.70
2018-11-13T07:38:42.465Z,81.60
2018-11-13T07:40:46.128Z,81.80
2018-11-13T07:42:49.826Z,81.80
2018-11-13T07:44:53.751Z,81.70
2018-11-13T07:46:57.384Z,82.30
2018-11-13T07:49:00.899Z,82.40
2018-11-13T07:51:04.681Z,83.00
2018-11-13T07:53:08.252Z,83.00
2018-11-13T07:55:12.769Z,83.30
2018-11-13T07:57:16.363Z,83.20
2018-11-13T07:59:19.855Z,82.50
2018-11-13T08:01:23.637Z,82.60
2018-11-13T08:03:29.998Z,82.60
2018-11-13T08:05:33.542Z,83.20
2018-11-13T08:07:37.220Z,85.50
2018-11-13T08:09:40.755Z,85.30
2018-11-13T08:11:44.328Z,85.50
2018-11-13T08:13:47.863Z,86.40
2018-11-13T08:15:51.496Z,86.10
2018-11-13T08:17:55.097Z,85.50
2018-11-13T08:19:58.940Z,85.20
2018-11-13T08:22:02.506Z,84.90
2018-11-13T08:24:06.217Z,84.70
2018-11-13T08:26:10.079Z,84.70
2018-11-13T08:28:13.943Z,84.90
2018-11-13T08:30:19.046Z,85.40
2018-11-13T08:32:22.740Z,86.70
2018-11-13T08:34:26.403Z,87.40
2018-11-13T08:36:29.940Z,87.90
2018-11-13T08:38:33.729Z,87.50
2018-11-13T08:40:37.308Z,87.60
2018-11-13T08:42:41.746Z,87.30
2018-11-13T08:44:45.370Z,86.60
2018-11-13T08:46:49.094Z,87.50
2018-11-13T08:48:54.457Z,87.30
2018-11-13T08:50:58.310Z,87.80
2018-11-13T08:53:01.805Z,87.70
2018-11-13T08:55:05.955Z,88.00
2018-11-13T08:57:09.624Z,88.30
2018-11-13T08:59:13.413Z,87.50
2018-11-13T09:01:16.956Z,87.10
2018-11-13T09:03:20.848Z,88.40
2018-11-13T09:05:24.481Z,88.40
2018-11-13T09:07:28.247Z,88.30
2018-11-13T09:09:31.814Z,90.00
2018-11-13T09:11:35.451Z,90.00
2018-11-13T09:13:39.021Z,89.70
2018-11-13T09:15:42.548Z,90.50
2018-11-13T09:17:46.098Z,90.10
2018-11-13T09:19:49.979Z,89.80
2018-11-13T09:21:53.572Z,90.40
2018-11-13T09:23:57.088Z,90.40
2018-11-13T09:26:00.749Z,89.90
2018-11-13T09:28:04.351Z,89.00
2018-11-13T09:30:10.712Z,89.10
2018-11-13T09:32:14.164Z,88.70
2018-11-13T09:34:17.737Z,88.50
2018-11-13T09:36:21.502Z,88.50
2018-11-13T09:38:25.293Z,88.10
2018-11-13T09:40:28.992Z,88.40
2018-11-13T09:42:32.641Z,88.00
2018-11-13T09:44:36.260Z,88.00
2018-11-13T09:46:39.799Z,87.70
2018-11-13T09:48:43.310Z,88.00
2018-11-13T09:50:47.083Z,87.60
2018-11-13T09:52:51.892Z,87.30
2018-11-13T09:54:55.685Z,87.60
2018-11-13T09:56:59.209Z,88.00
2018-11-13T09:59:02.904Z,87.70
2018-11-13T10:01:07.158Z,87.40
2018-11-13T10:03:11.283Z,87.20
2018-11-13T10:05:15.321Z,87.60
2018-11-13T10:07:18.336Z,87.30
2018-11-13T10:09:21.927Z,87.30
2018-11-13T10:11:25.474Z,87.60
2018-11-13T10:13:29.132Z,87.60
2018-11-13T10:15:32.717Z,87.90
2018-11-13T10:17:36.453Z,87.90
2018-11-13T10:19:39.995Z,87.80
2018-11-13T10:21:43.525Z,87.70
2018-11-13T10:23:47.064Z,87.40
2018-11-13T10:25:50.766Z,87.50
2018-11-13T10:27:54.472Z,87.50
2018-11-13T10:29:58.326Z,86.90
2018-11-13T10:32:01.802Z,86.80
2018-11-13T10:34:05.476Z,86.60
2018-11-13T10:36:09.125Z,86.30
2018-11-13T10:38:19.037Z,86.70
2018-11-13T10:40:23.306Z,86.70
2018-11-13T10:42:26.868Z,86.40
2018-11-13T10:44:30.895Z,86.80
2018-11-13T10:46:34.587Z,86.80
2018-11-13T10:48:38.176Z,87.10
2018-11-13T10:50:41.980Z,87.70
2018-11-13T10:52:45.521Z,88.70
2018-11-13T10:54:49.125Z,88.30
2018-11-13T10:56:52.753Z,88.70
2018-11-13T10:58:56.287Z,88.30
2018-11-13T11:01:11.944Z,88.80
2018-11-13T11:03:20.907Z,88.40
2018-11-13T11:05:25.592Z,89.20
2018-11-13T11:07:29.120Z,88.30
2018-11-13T11:09:32.675Z,89.40
2018-11-13T11:11:36.459Z,88.10
2018-11-13T11:13:40.204Z,88.30
2018-11-13T11:15:43.713Z,88.90
2018-11-13T11:17:47.299Z,88.80
2018-11-13T11:19:50.812Z,88.10
2018-11-13T11:21:54.436Z,88.60
2018-11-13T11:23:58.140Z,88.70
2018-11-13T11:26:01.897Z,88.50
2018-11-13T11:28:05.497Z,88.40
2018-11-13T11:30:13.750Z,88.00
2018-11-13T11:32:17.353Z,87.30
2018-11-13T11:34:20.920Z,86.30
2018-11-13T11:36:24.530Z,86.10
2018-11-13T11:38:28.210Z,87.10
2018-11-13T11:40:31.935Z,86.60
2018-11-13T11:42:35.681Z,88.40
2018-11-13T11:44:39.360Z,88.00
2018-11-13T11:46:42.897Z,88.00
2018-11-13T11:48:46.449Z,88.50
2018-11-13T11:50:50.073Z,88.10
2018-11-13T11:52:53.615Z,88.90
2018-11-13T11:54:57.256Z,89.30
2018-11-13T11:57:00.822Z,89.20
2018-11-13T11:59:04.541Z,89.00
2018-11-13T12:01:08.380Z,88.70
2018-11-13T12:03:11.910Z,88.40
2018-11-13T12:05:15.526Z,88.50
2018-11-13T12:07:19.089Z,88.10
2018-11-13T12:09:22.954Z,87.90
2018-11-13T12:11:26.535Z,88.00
2018-11-13T12:13:30.128Z,87.50
2018-11-13T12:15:33.727Z,87.20
2018-11-13T12:17:37.496Z,87.80
2018-11-13T12:19:40.988Z,87.40
2018-11-13T12:21:44.672Z,87.80
2018-11-13T12:23:48.337Z,87.40
2018-11-13T12:25:51.939Z,87.80
2018-11-13T12:27:55.549Z,88.60
2018-11-13T12:29:59.213Z,88.30
2018-11-13T12:32:02.860Z,87.80
2018-11-13T12:34:06.561Z,87.50
2018-11-13T12:36:10.118Z,87.00
2018-11-13T12:38:13.918Z,87.40
2018-11-13T12:40:18.880Z,88.10
2018-11-13T12:42:22.545Z,88.10
2018-11-13T12:44:26.097Z,88.70
2018-11-13T12:46:29.931Z,89.00
2018-11-13T12:48:33.550Z,88.60
2018-11-13T12:50:42.381Z,87.70
2018-11-13T12:52:46.024Z,89.00
2018-11-13T12:54:49.656Z,89.30
2018-11-13T12:56:53.389Z,89.20
2018-11-13T12:58:57.100Z,88.70
2018-11-13T13:01:01.312Z,88.50
2018-11-13T13:03:04.932Z,88.10
2018-11-13T13:05:09.368Z,88.00
2018-11-13T13:07:12.938Z,87.70
2018-11-13T13:09:16.511Z,86.60
2018-11-13T13:11:20.109Z,86.10
2018-11-13T13:13:23.664Z,87.20
2018-11-13T13:15:27.243Z,88.00
2018-11-13T13:17:30.805Z,88.00
2018-11-13T13:19:34.886Z,86.50
2018-11-13T13:21:38.497Z,86.90
2018-11-13T13:23:42.168Z,86.70
2018-11-13T13:25:46.023Z,86.70
2018-11-13T13:27:49.824Z,87.20
2018-11-13T13:29:53.833Z,87.00
2018-11-13T13:31:57.466Z,86.50
2018-11-13T13:34:01.152Z,86.90
2018-11-13T13:36:05.140Z,87.20
2018-11-13T13:38:09.384Z,86.80
2018-11-13T13:40:12.996Z,87.20
2018-11-13T13:42:16.559Z,87.40
2018-11-13T13:44:20.169Z,87.50
2018-11-13T13:46:26.802Z,87.30
2018-11-13T13:48:30.347Z,87.70
2018-11-13T13:50:34.287Z,87.50
2018-11-13T13:52:37.872Z,87.60
2018-11-13T13:54:41.420Z,86.90
2018-11-13T13:56:44.921Z,86.50
2018-11-13T13:58:48.540Z,85.60
2018-11-13T14:00:52.654Z,86.00
2018-11-13T14:02:56.151Z,85.60
2018-11-13T14:04:59.699Z,86.10
2018-11-13T14:07:03.480Z,86.80
2018-11-13T14:09:09.614Z,86.60
2018-11-13T14:11:13.317Z,86.30
2018-11-13T14:13:17.100Z,86.40
2018-11-13T14:15:20.781Z,86.10
2018-11-13T14:17:24.355Z,86.10
2018-11-13T14:19:27.949Z,86.00
2018-11-13T14:21:31.664Z,86.20
2018-11-13T14:23:35.269Z,85.50
2018-11-13T14:25:38.858Z,86.00
2018-11-13T14:27:42.506Z,85.60
2018-11-13T14:29:46.274Z,85.90
2018-11-13T14:31:49.819Z,85.60
2018-11-13T14:33:53.408Z,86.10
2018-11-13T14:35:56.996Z,86.00
2018-11-13T14:38:00.976Z,86.00
2018-11-13T14:40:06.255Z,86.20
2018-11-13T14:42:09.777Z,86.40
2018-11-13T14:44:13.312Z,87.00
2018-11-13T14:46:16.892Z,87.30
2018-11-13T14:48:20.488Z,87.10
2018-11-13T14:50:26.294Z,87.20
2018-11-13T14:52:29.941Z,86.90
2018-11-13T14:54:33.559Z,86.90
2018-11-13T14:56:37.200Z,86.70
2018-11-13T14:58:40.812Z,86.60
2018-11-13T15:00:44.536Z,86.70
2018-11-13T15:02:48.520Z,86.40
2018-11-13T15:04:52.194Z,86.30
2018-11-13T15:06:55.714Z,86.40
2018-11-13T15:08:59.779Z,86.90
2018-11-13T15:11:02.845Z,86.90
2018-11-13T15:13:07.144Z,86.90
2018-11-13T15:15:11.315Z,87.10
2018-11-13T15:17:14.818Z,87.30
2018-11-13T15:19:18.439Z,87.30
2018-11-13T15:21:21.992Z,87.00
2018-11-13T15:23:25.611Z,86.90
2018-11-13T15:25:29.249Z,86.60
2018-11-13T15:27:32.760Z,86.30
2018-11-13T15:29:36.475Z,86.40
2018-11-13T15:31:40.295Z,86.30
2018-11-13T15:33:43.959Z,86.10
2018-11-13T15:35:47.688Z,86.00
2018-11-13T15:37:51.301Z,86.00
2018-11-13T15:39:54.886Z,86.00
2018-11-13T15:41:58.471Z,86.10
2018-11-13T15:44:01.968Z,86.00
2018-11-13T15:46:05.816Z,86.10
2018-11-13T15:48:10.961Z,86.00
2018-11-13T15:50:19.870Z,86.20
2018-11-13T15:52:23.426Z,86.00
2018-11-13T15:54:26.974Z,86.10
2018-11-13T15:56:30.665Z,86.40
2018-11-13T15:58:34.226Z,86.50
2018-11-13T16:00:39.075Z,86.50
2018-11-13T16:02:43.498Z,86.50
2018-11-13T16:04:47.172Z,86.50
2018-11-13T16:06:50.841Z,85.70
2018-11-13T16:08:54.380Z,85.30
2018-11-13T16:10:57.963Z,86.50
2018-11-13T16:13:01.984Z,86.70
2018-11-13T16:15:06.635Z,86.60
2018-11-13T16:17:10.122Z,86.30
2018-11-13T16:19:13.887Z,85.90
2018-11-13T16:21:17.655Z,85.60
2018-11-13T16:23:21.127Z,85.20
2018-11-13T16:25:25.323Z,85.10
2018-11-13T16:27:28.949Z,84.90
2018-11-13T16:29:32.544Z,84.70
2018-11-13T16:31:36.053Z,84.60
2018-11-13T16:33:40.023Z,84.60
2018-11-13T16:35:43.681Z,84.60
2018-11-13T16:37:48.145Z,84.50
2018-11-13T16:39:51.597Z,84.80
2018-11-13T16:41:55.222Z,84.30
2018-11-13T16:43:58.692Z,86.70
2018-11-13T16:46:02.280Z,84.70
2018-11-13T16:48:07.042Z,85.30
2018-11-13T16:50:30.656Z,85.40
2018-11-13T16:52:34.192Z,85.40
2018-11-13T16:54:43.062Z,85.40
2018-11-13T16:56:50.559Z,84.90
2018-11-13T16:58:54.184Z,84.50
2018-11-13T17:00:58.004Z,84.50
2018-11-13T17:03:01.848Z,84.00
2018-11-13T17:05:07.629Z,84.00
2018-11-13T17:07:11.241Z,82.70
2018-11-13T17:09:14.728Z,83.60
2018-11-13T17:11:18.380Z,83.50
2018-11-13T17:13:21.901Z,83.00
2018-11-13T17:15:26.630Z,82.80
2018-11-13T17:17:30.316Z,83.00
2018-11-13T17:19:33.851Z,82.90
2018-11-13T17:21:37.492Z,83.60
2018-11-13T17:23:41.087Z,83.10
2018-11-13T17:25:44.620Z,83.00
2018-11-13T17:27:49.208Z,82.80
2018-11-13T17:29:52.950Z,82.80
2018-11-13T17:31:56.459Z,82.40
2018-11-13T17:34:00.058Z,82.50
2018-11-13T17:36:03.761Z,82.70
2018-11-13T17:38:08.178Z,82.90
2018-11-13T17:40:14.195Z,83.00
2018-11-13T17:42:18.176Z,83.30
2018-11-13T17:44:21.835Z,83.40
2018-11-13T17:46:25.373Z,83.70
2018-11-13T17:48:29.193Z,84.80
2018-11-13T17:50:34.263Z,84.60
2018-11-13T17:52:37.784Z,84.10
2018-11-13T17:54:41.448Z,83.60
2018-11-13T17:56:45.040Z,83.20
2018-11-13T17:58:48.612Z,83.50
2018-11-13T18:00:52.198Z,83.20
2018-11-13T18:02:55.912Z,84.00
2018-11-13T18:04:59.551Z,84.20
2018-11-13T18:07:03.228Z,83.70
2018-11-13T18:09:10.893Z,83.70
2018-11-13T18:11:14.702Z,83.10
2018-11-13T18:13:18.405Z,82.80
2018-11-13T18:15:23.566Z,83.20
2018-11-13T18:17:27.094Z,82.60
2018-11-13T18:19:30.891Z,83.00
2018-11-13T18:21:34.615Z,82.70
2018-11-13T18:23:38.116Z,82.50
2018-11-13T18:25:41.602Z,82.00
2018-11-13T18:27:47.626Z,82.50
2018-11-13T18:29:51.288Z,81.70
2018-11-13T18:31:54.947Z,81.70
2018-11-13T18:33:58.770Z,81.90
2018-11-13T18:36:02.365Z,82.10
2018-11-13T18:38:07.825Z,82.10
2018-11-13T18:40:13.436Z,81.60
2018-11-13T18:42:17.248Z,81.60
2018-11-13T18:44:25.313Z,81.10
2018-11-13T18:46:28.896Z,81.30
2018-11-13T18:48:32.839Z,81.00
2018-11-13T18:50:42.429Z,80.70
2018-11-13T18:52:46.292Z,80.60
2018-11-13T18:54:50.448Z,80.50
2018-11-13T18:56:54.188Z,80.40
2018-11-13T18:58:58.052Z,80.10
2018-11-13T19:01:01.641Z,80.00
2018-11-13T19:03:06.284Z,80.10
2018-11-13T19:05:11.554Z,81.00
2018-11-13T19:07:15.488Z,82.20
2018-11-13T19:09:19.473Z,82.30
2018-11-13T19:11:23.501Z,82.70
2018-11-13T19:13:28.334Z,82.30
2018-11-13T19:15:34.184Z,81.90
2018-11-13T19:17:38.271Z,82.30
2018-11-13T19:19:42.020Z,82.40
2018-11-13T19:21:45.817Z,82.30
2018-11-13T19:23:49.452Z,82.10
2018-11-13T19:25:53.425Z,82.10
2018-11-13T19:27:57.392Z,81.80
2018-11-13T19:30:01.514Z,81.50
2018-11-13T19:32:05.094Z,81.70
2018-11-13T19:34:08.733Z,82.50
2018-11-13T19:36:13.090Z,82.00
2018-11-13T19:38:16.175Z,82.50
2018-11-13T19:40:25.012Z,82.30
2018-11-13T19:42:28.656Z,82.00
2018-11-13T19:44:32.326Z,81.60
2018-11-13T19:46:35.933Z,81.30
2018-11-13T19:48:39.541Z,81.50
2018-11-13T19:50:43.329Z,81.50
2018-11-13T19:52:46.861Z,81.90
2018-11-13T19:54:50.483Z,81.20
2018-11-13T19:56:54.110Z,81.40
2018-11-13T19:58:57.848Z,82.00
2018-11-13T20:01:01.481Z,82.50
2018-11-13T20:03:06.656Z,82.80
2018-11-13T20:05:11.694Z,83.00
2018-11-13T20:07:15.346Z,82.60
2018-11-13T20:09:18.952Z,82.40
2018-11-13T20:11:22.575Z,81.40
2018-11-13T20:13:26.159Z,82.20
2018-11-13T20:15:30.618Z,81.30
2018-11-13T20:17:34.293Z,81.40
2018-11-13T20:19:37.864Z,81.10
2018-11-13T20:21:41.492Z,81.50
2018-11-13T20:23:45.149Z,82.00
2018-11-13T20:25:48.889Z,81.70
2018-11-13T20:27:52.579Z,81.90
2018-11-13T20:29:56.179Z,81.90
2018-11-13T20:31:59.965Z,80.90
2018-11-13T20:34:03.665Z,80.70
2018-11-13T20:36:07.220Z,80.90
2018-11-13T20:38:10.849Z,79.90
2018-11-13T20:40:17.936Z,80.00
2018-11-13T20:42:21.482Z,79.20
2018-11-13T20:44:25.292Z,79.40
2018-11-13T20:46:28.847Z,79.50
2018-11-13T20:48:32.442Z,79.20
2018-11-13T20:50:36.020Z,79.40
2018-11-13T20:52:39.618Z,79.40
2018-11-13T20:54:43.172Z,80.40
2018-11-13T20:56:46.845Z,81.50
2018-11-13T20:58:50.436Z,81.70
2018-11-13T21:00:54.040Z,82.20
2018-11-13T21:02:57.995Z,82.20
2018-11-13T21:05:01.745Z,81.90
2018-11-13T21:07:05.408Z,81.10
2018-11-13T21:09:08.959Z,80.40
2018-11-13T21:11:12.768Z,80.40
2018-11-13T21:13:16.291Z,79.30
2018-11-13T21:15:21.089Z,79.20
2018-11-13T21:17:24.776Z,79.30
2018-11-13T21:19:28.179Z,79.60
2018-11-13T21:21:31.835Z,79.30
2018-11-13T21:23:35.508Z,79.70
2018-11-13T21:25:39.077Z,79.20
2018-11-13T21:27:42.700Z,79.00
2018-11-13T21:29:46.356Z,78.80
2018-11-13T21:31:49.910Z,78.70
2018-11-13T21:33:53.612Z,78.80
2018-11-13T21:35:57.248Z,78.70
2018-11-13T21:38:00.960Z,78.40
2018-11-13T21:40:04.668Z,78.10
2018-11-13T21:42:08.294Z,78.90
2018-11-13T21:44:11.982Z,78.80
2018-11-13T21:46:15.568Z,79.20
2018-11-13T21:48:19.328Z,79.00
2018-11-13T21:50:24.307Z,78.70
2018-11-13T21:52:27.952Z,78.80
2018-11-13T21:54:31.529Z,78.80
2018-11-13T21:56:35.129Z,78.70
2018-11-13T21:58:38.954Z,79.40
2018-11-13T22:00:42.634Z,80.50
2018-11-13T22:02:50.002Z,80.50
2018-11-13T22:04:53.644Z,80.00
2018-11-13T22:06:57.140Z,79.60
2018-11-13T22:09:00.699Z,79.70
2018-11-13T22:11:04.365Z,79.40
2018-11-13T22:13:07.956Z,79.10
2018-11-13T22:15:14.122Z,78.80
2018-11-13T22:17:17.779Z,78.40
2018-11-13T22:19:21.333Z,78.40
2018-11-13T22:21:24.931Z,78.20
2018-11-13T22:23:28.467Z,78.50
2018-11-13T22:25:32.099Z,79.10
2018-11-13T22:27:35.676Z,78.90
2018-11-13T22:29:39.192Z,78.70
2018-11-13T22:31:42.766Z,78.50
2018-11-13T22:33:46.339Z,78.60
2018-11-13T22:35:49.892Z,78.40
2018-11-13T22:37:53.477Z,77.90
2018-11-13T22:39:57.105Z,78.10
2018-11-13T22:42:00.609Z,78.30
2018-11-13T22:44:04.372Z,78.00
2018-11-13T22:46:08.115Z,77.80
2018-11-13T22:48:11.701Z,78.00
2018-11-13T22:50:32.403Z,78.00
2018-11-13T22:52:36.032Z,77.40
2018-11-13T22:54:39.675Z,77.80
2018-11-13T22:56:43.492Z,77.50
2018-11-13T22:58:47.057Z,77.40
2018-11-13T23:00:50.783Z,77.40
2018-11-13T23:02:55.195Z,77.60
2018-11-13T23:04:58.840Z,77.70
2018-11-13T23:07:02.348Z,78.10
2018-11-13T23:09:09.268Z,79.00
2018-11-13T23:11:13.963Z,79.10
2018-11-13T23:13:17.548Z,79.10
2018-11-13T23:15:21.580Z,78.50
2018-11-13T23:17:25.225Z,78.20
2018-11-13T23:19:28.896Z,78.00
2018-11-13T23:21:32.451Z,78.10
2018-11-13T23:23:36.003Z,79.40
2018-11-13T23:25:39.708Z,79.40
2018-11-13T23:27:44.105Z,79.40
2018-11-13T23:29:47.692Z,79.30
2018-11-13T23:31:51.195Z,79.10
2018-11-13T23:33:54.740Z,79.00
2018-11-13T23:35:58.421Z,78.80
2018-11-13T23:38:02.809Z,79.00
2018-11-13T23:40:08.064Z,78.80
2018-11-13T23:42:11.687Z,78.70
2018-11-13T23:44:15.355Z,78.80
2018-11-13T23:46:19.002Z,79.60
2018-11-13T23:48:22.661Z,79.80
2018-11-13T23:50:26.563Z,80.10
2018-11-13T23:52:29.868Z,79.80
2018-11-13T23:54:33.480Z,79.20
2018-11-13T23:56:37.452Z,78.80
2018-11-13T23:58:40.627Z,78.60
